createdAt,value
2022-10-12T00:00:39.606Z,1.27
2022-10-12T00:03:07.559Z,1.50
2022-10-12T00:05:35.492Z,1.70
2022-10-12T00:08:05.048Z,1.30
2022-10-12T00:10:32.987Z,1.47
2022-10-12T00:13:01.528Z,1.07
2022-10-12T00:15:29.455Z,1.60
2022-10-12T00:17:57.324Z,1.27
2022-10-12T00:20:25.265Z,1.10
2022-10-12T00:22:53.184Z,1.30
2022-10-12T00:25:22.507Z,1.27
2022-10-12T00:27:50.483Z,1.10
2022-10-12T00:30:18.698Z,1.70
2022-10-12T00:32:46.624Z,0.90
2022-10-12T00:35:14.597Z,1.30
2022-10-12T00:37:42.493Z,1.50
2022-10-12T00:40:11.833Z,1.53
2022-10-12T00:42:41.145Z,1.10
2022-10-12T00:45:10.479Z,1.63
2022-10-12T00:47:41.992Z,1.57
2022-10-12T00:50:14.200Z,1.63
2022-10-12T00:52:46.247Z,0.93
2022-10-12T00:55:18.592Z,1.10
2022-10-12T00:57:49.262Z,1.00
2022-10-12T01:00:18.378Z,1.53
2022-10-12T01:02:48.370Z,1.93
2022-10-12T01:05:17.482Z,1.20
2022-10-12T01:07:45.553Z,1.67
2022-10-12T01:10:13.970Z,1.37
2022-10-12T01:12:43.828Z,1.10
2022-10-12T01:15:14.109Z,1.00
2022-10-12T01:17:49.673Z,1.10
2022-10-12T01:20:40.578Z,1.20
2022-10-12T01:23:36.924Z,1.40
2022-10-12T01:26:27.637Z,1.30
2022-10-12T01:29:06.736Z,1.70
2022-10-12T01:31:39.239Z,1.20
2022-10-12T01:34:15.054Z,1.13
2022-10-12T01:36:46.473Z,1.30
2022-10-12T01:39:19.217Z,1.50
2022-10-12T01:41:50.526Z,1.50
2022-10-12T01:44:22.362Z,1.50
2022-10-12T01:46:53.441Z,1.80
2022-10-12T01:49:25.870Z,1.63
2022-10-12T01:52:16.653Z,1.53
2022-10-12T01:55:10.255Z,1.40
2022-10-12T01:57:51.787Z,2.27
2022-10-12T02:00:20.134Z,1.23
2022-10-12T02:03:00.199Z,1.37
2022-10-12T02:05:37.787Z,1.40
2022-10-12T02:08:12.984Z,1.63
2022-10-12T02:10:45.439Z,1.67
2022-10-12T02:13:16.324Z,1.07
2022-10-12T02:15:45.389Z,1.90
2022-10-12T02:18:19.025Z,1.00
2022-10-12T02:20:49.154Z,1.87
2022-10-12T02:23:18.099Z,1.80
2022-10-12T02:25:47.320Z,1.93
2022-10-12T02:28:18.389Z,1.70
2022-10-12T02:30:51.765Z,1.77
2022-10-12T02:33:26.595Z,1.63
2022-10-12T02:35:59.920Z,2.03
2022-10-12T02:38:33.000Z,1.70
2022-10-12T02:41:05.845Z,1.63
2022-10-12T02:43:38.779Z,1.70
2022-10-12T02:46:10.479Z,1.63
2022-10-12T02:48:41.725Z,1.90
2022-10-12T02:51:12.025Z,1.87
2022-10-12T02:53:40.471Z,1.70
2022-10-12T02:56:11.856Z,1.53
2022-10-12T02:58:39.773Z,1.63
2022-10-12T03:01:07.889Z,1.50
2022-10-12T03:03:35.867Z,1.70
2022-10-12T03:06:05.828Z,1.50
2022-10-12T03:08:33.763Z,1.63
2022-10-12T03:11:03.604Z,1.70
2022-10-12T03:13:32.011Z,1.67
2022-10-12T03:16:03.621Z,1.57
2022-10-12T03:18:31.958Z,1.60
2022-10-12T03:20:59.876Z,2.00
2022-10-12T03:23:29.455Z,2.00
2022-10-12T03:25:57.495Z,1.83
2022-10-12T03:28:25.511Z,2.10
2022-10-12T03:30:53.564Z,1.70
2022-10-12T03:33:21.554Z,1.53
2022-10-12T03:35:49.820Z,1.77
2022-10-12T03:38:18.819Z,1.30
2022-10-12T03:40:48.690Z,1.90
2022-10-12T03:43:17.254Z,1.70
2022-10-12T03:45:45.440Z,1.67
2022-10-12T03:48:13.300Z,1.83
2022-10-12T03:50:41.227Z,1.77
2022-10-12T03:53:09.197Z,2.40
2022-10-12T03:55:37.114Z,1.90
2022-10-12T03:58:06.482Z,1.60
2022-10-12T04:00:34.401Z,1.60
2022-10-12T04:03:02.598Z,2.00
2022-10-12T04:05:30.703Z,1.73
2022-10-12T04:07:59.326Z,1.60
2022-10-12T04:10:27.559Z,1.80
2022-10-12T04:12:55.438Z,2.07
2022-10-12T04:15:24.713Z,1.73
2022-10-12T04:17:52.703Z,1.60
2022-10-12T04:20:20.631Z,1.50
2022-10-12T04:22:48.540Z,2.53
2022-10-12T04:25:16.548Z,2.17
2022-10-12T04:27:44.433Z,2.07
2022-10-12T04:30:13.413Z,2.00
2022-10-12T04:32:42.645Z,1.23
2022-10-12T04:35:10.838Z,1.53
2022-10-12T04:37:39.276Z,1.87
2022-10-12T04:40:08.591Z,1.53
2022-10-12T04:42:36.518Z,1.60
2022-10-12T04:45:04.615Z,1.70
2022-10-12T04:47:34.294Z,1.80
2022-10-12T04:50:03.713Z,1.70
2022-10-12T04:52:31.590Z,1.57
2022-10-12T04:54:59.493Z,1.80
2022-10-12T04:57:27.413Z,1.43
2022-10-12T04:59:55.333Z,2.13
2022-10-12T05:02:23.298Z,1.73
2022-10-12T05:04:51.519Z,2.10
2022-10-12T05:07:20.771Z,2.33
2022-10-12T05:09:48.667Z,2.20
2022-10-12T05:12:16.585Z,2.33
2022-10-12T05:14:45.627Z,1.93
2022-10-12T05:17:13.550Z,1.80
2022-10-12T05:19:41.446Z,1.70
2022-10-12T05:22:09.351Z,1.53
2022-10-12T05:24:38.582Z,2.20
2022-10-12T05:27:06.582Z,1.57
2022-10-12T05:29:34.456Z,1.87
2022-10-12T05:32:02.331Z,2.10
2022-10-12T05:34:30.253Z,2.17
2022-10-12T05:36:58.623Z,2.00
2022-10-12T05:39:26.541Z,2.07
2022-10-12T05:41:55.931Z,2.23
2022-10-12T05:44:23.841Z,1.43
2022-10-12T05:46:51.732Z,2.57
2022-10-12T05:49:19.613Z,1.70
2022-10-12T05:51:47.562Z,1.43
2022-10-12T05:54:15.523Z,2.23
2022-10-12T05:56:43.575Z,2.20
2022-10-12T05:59:13.486Z,2.30
2022-10-12T06:01:41.439Z,1.90
2022-10-12T06:04:09.559Z,2.00
2022-10-12T06:06:37.464Z,1.77
2022-10-12T06:09:05.422Z,2.10
2022-10-12T06:11:36.291Z,1.40
2022-10-12T06:14:04.742Z,1.87
2022-10-12T06:16:34.187Z,1.50
2022-10-12T06:19:02.185Z,1.67
2022-10-12T06:21:34.259Z,1.83
2022-10-12T06:24:02.779Z,1.90
2022-10-12T06:26:30.735Z,1.50
2022-10-12T06:29:00.687Z,1.90
2022-10-12T06:31:28.872Z,1.50
2022-10-12T06:33:58.150Z,1.57
2022-10-12T06:36:26.190Z,1.80
2022-10-12T06:38:54.185Z,1.77
2022-10-12T06:41:22.096Z,1.80
2022-10-12T06:43:50.015Z,1.60
2022-10-12T06:46:18.047Z,1.90
2022-10-12T06:48:45.950Z,1.20
2022-10-12T06:51:15.268Z,1.27
2022-10-12T06:53:43.125Z,1.80
2022-10-12T06:56:12.376Z,1.77
2022-10-12T06:58:40.993Z,1.40
2022-10-12T07:01:10.701Z,1.20
2022-10-12T07:03:38.770Z,1.90
2022-10-12T07:06:08.426Z,2.40
2022-10-12T07:08:37.767Z,1.30
2022-10-12T07:11:07.414Z,1.47
2022-10-12T07:13:35.412Z,1.27
2022-10-12T07:16:03.689Z,1.83
2022-10-12T07:18:31.592Z,1.33
2022-10-12T07:20:59.818Z,1.63
2022-10-12T07:23:27.988Z,2.03
2022-10-12T07:25:57.287Z,1.93
2022-10-12T07:28:26.019Z,2.07
2022-10-12T07:30:54.464Z,2.53
2022-10-12T07:33:22.391Z,1.63
2022-10-12T07:36:13.290Z,2.10
2022-10-12T07:38:44.673Z,2.00
2022-10-12T07:41:14.585Z,1.60
2022-10-12T07:43:43.092Z,2.70
2022-10-12T07:46:11.456Z,2.53
2022-10-12T07:48:44.492Z,2.43
2022-10-12T07:51:16.986Z,2.37
2022-10-12T07:53:44.921Z,1.67
2022-10-12T07:56:15.992Z,2.17
2022-10-12T07:58:44.809Z,2.50
2022-10-12T08:01:12.817Z,2.50
2022-10-12T08:03:40.862Z,2.57
2022-10-12T08:06:13.526Z,2.50
2022-10-12T08:08:42.081Z,2.50
2022-10-12T08:11:10.798Z,3.43
2022-10-12T08:13:40.723Z,2.73
2022-10-12T08:16:11.922Z,3.13
2022-10-12T08:18:39.911Z,2.53
2022-10-12T08:21:10.158Z,2.83
2022-10-12T08:23:38.731Z,3.70
2022-10-12T08:26:07.626Z,3.23
2022-10-12T08:28:36.886Z,2.40
2022-10-12T08:31:09.696Z,3.23
2022-10-12T08:33:37.959Z,3.20
2022-10-12T08:36:07.146Z,2.80
2022-10-12T08:38:38.499Z,2.63
2022-10-12T08:41:19.820Z,4.20
2022-10-12T08:43:57.676Z,3.87
2022-10-12T08:46:27.792Z,3.70
2022-10-12T08:49:01.709Z,3.17
2022-10-12T08:51:34.178Z,4.10
2022-10-12T08:54:07.387Z,3.47
2022-10-12T08:56:35.896Z,5.87
2022-10-12T08:59:04.493Z,4.63
2022-10-12T09:01:38.485Z,4.50
2022-10-12T09:04:21.354Z,3.97
2022-10-12T09:06:57.421Z,4.37
2022-10-12T09:09:43.086Z,4.50
2022-10-12T09:12:26.336Z,3.83
2022-10-12T09:15:00.379Z,4.00
2022-10-12T09:17:33.393Z,4.53
2022-10-12T09:20:06.078Z,4.37
2022-10-12T09:22:35.674Z,4.10
2022-10-12T09:25:04.549Z,4.70
2022-10-12T09:27:32.990Z,4.30
2022-10-12T09:30:04.373Z,4.50
2022-10-12T09:32:52.930Z,3.97
2022-10-12T09:35:21.109Z,4.57
2022-10-12T09:37:53.901Z,3.90
2022-10-12T09:40:25.070Z,5.20
2022-10-12T09:42:54.800Z,4.03
2022-10-12T09:45:24.007Z,5.03
2022-10-12T09:48:17.294Z,5.10
2022-10-12T09:50:49.992Z,3.77
2022-10-12T09:53:26.761Z,4.70
2022-10-12T09:55:57.690Z,3.70
2022-10-12T09:58:27.640Z,4.43
2022-10-12T10:01:21.645Z,4.03
2022-10-12T10:04:06.901Z,6.80
2022-10-12T10:06:34.959Z,5.27
2022-10-12T10:09:03.101Z,5.47
2022-10-12T10:11:32.483Z,5.33
2022-10-12T10:14:02.311Z,4.80
2022-10-12T10:16:31.730Z,5.13
2022-10-12T10:19:02.966Z,5.90
2022-10-12T10:21:35.027Z,4.40
2022-10-12T10:24:05.098Z,5.00
2022-10-12T10:26:52.920Z,4.77
2022-10-12T10:29:34.050Z,4.97
2022-10-12T10:32:13.050Z,5.73
2022-10-12T10:34:44.160Z,5.47
2022-10-12T10:37:21.039Z,4.87
2022-10-12T10:39:53.407Z,6.13
2022-10-12T10:42:23.720Z,4.57
2022-10-12T10:44:53.992Z,5.10
2022-10-12T10:47:21.974Z,5.60
2022-10-12T10:49:57.246Z,5.70
2022-10-12T10:52:28.788Z,5.30
2022-10-12T10:55:20.802Z,5.73
2022-10-12T10:57:58.441Z,7.93
2022-10-12T11:00:38.560Z,6.10
2022-10-12T11:03:14.071Z,5.57
2022-10-12T11:05:47.583Z,6.40
2022-10-12T11:08:21.567Z,6.00
2022-10-12T11:10:53.682Z,7.00
2022-10-12T11:13:25.519Z,5.70
2022-10-12T11:15:58.729Z,5.33
2022-10-12T11:18:33.114Z,6.00
2022-10-12T11:21:05.879Z,7.10
2022-10-12T11:23:41.550Z,6.47
2022-10-12T11:26:16.853Z,6.60
2022-10-12T11:28:45.596Z,5.17
2022-10-12T11:31:21.206Z,5.40
2022-10-12T11:33:50.711Z,4.70
2022-10-12T11:36:24.195Z,5.63
2022-10-12T11:38:56.649Z,5.80
2022-10-12T11:41:35.737Z,5.43
2022-10-12T11:44:08.493Z,4.90
2022-10-12T11:46:48.791Z,5.20
2022-10-12T11:49:24.201Z,5.60
2022-10-12T11:51:57.499Z,5.50
2022-10-12T11:54:31.817Z,5.60
2022-10-12T11:57:04.812Z,5.67
2022-10-12T11:59:37.700Z,5.10
2022-10-12T12:02:17.178Z,5.50
2022-10-12T12:04:47.191Z,5.00
2022-10-12T12:07:48.606Z,4.73
2022-10-12T12:10:45.218Z,5.40
2022-10-12T12:13:23.283Z,5.47
2022-10-12T12:16:33.871Z,5.10
2022-10-12T12:19:15.451Z,4.73
2022-10-12T12:22:23.449Z,5.50
2022-10-12T12:25:16.878Z,5.00
2022-10-12T12:27:47.743Z,5.07
2022-10-12T12:30:29.809Z,4.60
2022-10-12T12:32:59.816Z,4.97
2022-10-12T12:35:32.047Z,4.67
2022-10-12T12:38:20.693Z,5.20
2022-10-12T12:41:02.847Z,5.33
2022-10-12T12:43:56.397Z,5.80
2022-10-12T12:46:27.707Z,4.90
2022-10-12T12:49:04.514Z,4.53
2022-10-12T12:51:41.801Z,4.73
2022-10-12T12:54:17.708Z,4.10
2022-10-12T12:57:18.465Z,5.07
2022-10-12T13:00:11.961Z,4.93
2022-10-12T13:03:01.499Z,5.83
2022-10-12T13:06:03.827Z,6.10
2022-10-12T13:08:42.041Z,4.80
2022-10-12T13:11:35.175Z,4.10
2022-10-12T13:14:16.122Z,4.70
2022-10-12T13:19:48.276Z,4.40
2022-10-12T13:22:21.969Z,5.80
2022-10-12T13:24:52.311Z,5.27
2022-10-12T13:27:24.387Z,6.00
2022-10-12T13:29:59.311Z,5.70
2022-10-12T13:32:35.225Z,5.23
2022-10-12T13:35:07.158Z,5.10
2022-10-12T13:37:36.172Z,5.53
2022-10-12T13:40:04.452Z,4.43
2022-10-12T13:42:36.577Z,5.40
2022-10-12T13:45:09.591Z,4.87
2022-10-12T13:47:43.581Z,5.20
2022-10-12T13:50:19.239Z,5.47
2022-10-12T13:52:54.523Z,4.70
2022-10-12T13:55:29.114Z,4.80
2022-10-12T13:57:57.657Z,4.80
2022-10-12T14:00:28.419Z,4.57
2022-10-12T14:02:58.755Z,5.90
2022-10-12T14:05:29.107Z,5.33
2022-10-12T14:08:00.496Z,6.43
2022-10-12T14:10:32.600Z,5.70
2022-10-12T14:13:04.151Z,5.53
2022-10-12T14:15:36.207Z,5.77
2022-10-12T14:18:05.043Z,5.00
2022-10-12T14:20:37.189Z,5.00
2022-10-12T14:23:14.089Z,4.87
2022-10-12T14:25:54.002Z,4.70
2022-10-12T14:28:29.867Z,4.47
2022-10-12T14:30:59.434Z,5.20
2022-10-12T14:33:28.849Z,4.87
2022-10-12T14:36:15.333Z,5.13
2022-10-12T14:38:45.665Z,4.63
2022-10-12T14:41:34.213Z,4.27
2022-10-12T14:44:12.835Z,4.93
2022-10-12T14:46:45.595Z,5.30
2022-10-12T14:49:18.577Z,6.07
2022-10-12T14:51:47.115Z,6.90
2022-10-12T14:54:15.128Z,5.30
2022-10-12T14:56:43.055Z,5.40
2022-10-12T14:59:10.949Z,6.40
2022-10-12T15:01:41.694Z,5.67
2022-10-12T15:04:14.279Z,5.50
2022-10-12T15:06:44.876Z,4.70
2022-10-12T15:09:16.486Z,5.60
2022-10-12T15:11:44.407Z,5.40
2022-10-12T15:14:12.648Z,5.70
2022-10-12T15:16:40.601Z,5.57
2022-10-12T15:19:08.528Z,6.57
2022-10-12T15:21:37.851Z,5.40
2022-10-12T15:24:15.203Z,5.40
2022-10-12T15:26:43.113Z,5.03
2022-10-12T15:29:11.075Z,5.53
2022-10-12T15:31:38.972Z,4.93
2022-10-12T15:34:13.190Z,4.40
2022-10-12T15:36:43.006Z,5.20
2022-10-12T15:39:10.921Z,5.33
2022-10-12T15:41:38.801Z,4.73
2022-10-12T15:44:07.756Z,4.80
2022-10-12T15:46:35.666Z,4.60
2022-10-12T15:49:03.623Z,5.20
2022-10-12T15:51:31.669Z,5.07
2022-10-12T15:54:00.991Z,5.20
2022-10-12T15:56:29.189Z,5.17
2022-10-12T15:58:57.079Z,5.23
2022-10-12T16:01:25.037Z,4.70
2022-10-12T16:03:53.045Z,5.23
2022-10-12T16:06:21.322Z,5.20
2022-10-12T16:08:49.281Z,5.20
2022-10-12T16:11:19.491Z,5.50
2022-10-12T16:13:56.264Z,4.63
2022-10-12T16:16:27.439Z,5.37
2022-10-12T16:18:55.359Z,5.50
2022-10-12T16:21:23.299Z,4.83
2022-10-12T16:23:51.259Z,5.07
2022-10-12T16:26:20.581Z,4.67
2022-10-12T16:28:48.837Z,5.33
2022-10-12T16:31:18.158Z,5.10
2022-10-12T16:33:46.531Z,4.40
2022-10-12T16:36:16.331Z,5.30
2022-10-12T16:38:45.085Z,5.17
2022-10-12T16:41:14.790Z,5.33
2022-10-12T16:43:44.648Z,5.53
2022-10-12T16:46:12.584Z,5.23
2022-10-12T16:48:40.499Z,5.10
2022-10-12T16:51:09.628Z,5.93
2022-10-12T16:53:37.775Z,5.43
2022-10-12T16:56:06.090Z,5.27
2022-10-12T16:58:34.053Z,5.07
2022-10-12T17:01:11.010Z,4.37
2022-10-12T17:03:39.154Z,4.70
2022-10-12T17:06:07.914Z,5.17
2022-10-12T17:08:38.870Z,4.70
2022-10-12T17:11:08.230Z,5.77
2022-10-12T17:13:37.530Z,5.60
2022-10-12T17:16:26.391Z,5.30
2022-10-12T17:18:59.465Z,5.10
2022-10-12T17:21:28.224Z,6.27
2022-10-12T17:23:57.980Z,5.70
2022-10-12T17:26:26.136Z,5.00
2022-10-12T17:28:54.250Z,5.07
2022-10-12T17:31:22.258Z,5.43
2022-10-12T17:33:50.209Z,5.90
2022-10-12T17:36:19.485Z,5.57
2022-10-12T17:38:47.365Z,5.90
2022-10-12T17:41:15.300Z,5.57
2022-10-12T17:43:43.215Z,5.33
2022-10-12T17:46:11.101Z,5.00
2022-10-12T17:48:39.081Z,5.40
2022-10-12T17:51:09.883Z,4.80
2022-10-12T17:53:39.565Z,5.90
2022-10-12T17:56:09.251Z,5.60
2022-10-12T17:58:37.367Z,4.87
2022-10-12T18:01:06.477Z,5.20
2022-10-12T18:03:34.420Z,5.07
2022-10-12T18:06:06.226Z,5.00
2022-10-12T18:08:34.319Z,5.00
2022-10-12T18:11:05.555Z,5.00
2022-10-12T18:13:35.221Z,5.07
2022-10-12T18:16:03.431Z,6.00
2022-10-12T18:18:31.321Z,4.60
2022-10-12T18:20:59.244Z,5.00
2022-10-12T18:23:27.226Z,5.80
2022-10-12T18:25:55.113Z,5.90
2022-10-12T18:28:24.418Z,5.70
2022-10-12T18:30:52.386Z,5.53
2022-10-12T18:33:20.725Z,5.00
2022-10-12T18:35:48.855Z,5.53
2022-10-12T18:38:16.765Z,4.87
2022-10-12T18:40:44.833Z,4.63
2022-10-12T18:43:12.723Z,4.73
2022-10-12T18:45:44.186Z,4.80
2022-10-12T18:48:12.184Z,5.50
2022-10-12T18:50:40.599Z,6.80
2022-10-12T18:53:08.573Z,5.80
2022-10-12T18:55:37.866Z,5.47
2022-10-12T18:58:06.028Z,6.00
2022-10-12T19:00:34.019Z,5.80
2022-10-12T19:03:03.333Z,5.70
2022-10-12T19:05:31.305Z,5.17
2022-10-12T19:07:59.495Z,5.37
2022-10-12T19:10:27.382Z,4.17
2022-10-12T19:12:55.306Z,4.77
2022-10-12T19:15:23.889Z,5.50
2022-10-12T19:17:51.948Z,4.23
2022-10-12T19:20:21.240Z,4.70
2022-10-12T19:22:49.246Z,5.07
2022-10-12T19:25:17.273Z,4.60
2022-10-12T19:27:45.198Z,4.67
2022-10-12T19:30:13.827Z,5.30
2022-10-12T19:32:41.708Z,5.43
2022-10-12T19:35:09.996Z,5.50
2022-10-12T19:37:39.254Z,6.57
2022-10-12T19:40:11.610Z,5.63
2022-10-12T19:42:39.506Z,6.70
2022-10-12T19:45:08.366Z,6.97
2022-10-12T19:47:36.394Z,6.27
2022-10-12T19:50:04.364Z,7.07
2022-10-12T19:52:32.251Z,7.27
2022-10-12T19:55:01.487Z,5.70
2022-10-12T19:57:29.465Z,5.77
2022-10-12T19:59:57.383Z,5.27
2022-10-12T20:02:25.379Z,5.47
2022-10-12T20:04:54.229Z,5.70
2022-10-12T20:07:22.239Z,6.43
2022-10-12T20:09:50.172Z,6.43
2022-10-12T20:12:20.050Z,7.00
2022-10-12T20:14:48.309Z,6.50
2022-10-12T20:17:16.331Z,6.37
2022-10-12T20:19:44.907Z,5.57
2022-10-12T20:22:12.807Z,6.70
2022-10-12T20:24:40.720Z,6.43
2022-10-12T20:27:08.655Z,5.40
2022-10-12T20:29:37.934Z,5.10
2022-10-12T20:32:06.379Z,4.60
2022-10-12T20:34:34.571Z,4.80
2022-10-12T20:37:02.506Z,4.90
2022-10-12T20:39:30.443Z,4.67
2022-10-12T20:41:58.373Z,4.70
2022-10-12T20:44:26.289Z,5.60
2022-10-12T20:46:55.646Z,5.73
2022-10-12T20:49:23.581Z,4.63
2022-10-12T20:51:51.502Z,5.70
2022-10-12T20:54:19.462Z,5.17
2022-10-12T20:56:51.828Z,5.00
2022-10-12T20:59:19.761Z,5.30
2022-10-12T21:01:47.813Z,5.30
2022-10-12T21:04:17.093Z,6.03
2022-10-12T21:06:44.970Z,5.30
2022-10-12T21:09:14.852Z,6.03
2022-10-12T21:11:43.656Z,6.67
2022-10-12T21:14:12.932Z,6.30
2022-10-12T21:16:40.844Z,5.30
2022-10-12T21:19:08.878Z,5.67
2022-10-12T21:21:38.152Z,5.87
2022-10-12T21:24:06.454Z,6.13
2022-10-12T21:26:34.426Z,5.40
2022-10-12T21:29:03.234Z,5.13
2022-10-12T21:31:32.820Z,4.57
2022-10-12T21:34:01.708Z,4.70
2022-10-12T21:36:30.959Z,4.53
2022-10-12T21:39:00.243Z,5.07
2022-10-12T21:41:30.288Z,4.33
2022-10-12T21:43:59.073Z,4.67
2022-10-12T21:46:29.630Z,5.07
2022-10-12T21:48:59.565Z,6.47
2022-10-12T21:51:28.925Z,6.30
2022-10-12T21:53:56.873Z,7.70
2022-10-12T21:56:28.058Z,6.60
2022-10-12T21:58:58.484Z,6.70
2022-10-12T22:01:28.537Z,6.60
2022-10-12T22:04:00.345Z,7.50
2022-10-12T22:06:29.811Z,6.60
2022-10-12T22:08:59.684Z,5.60
2022-10-12T22:11:31.074Z,5.70
2022-10-12T22:14:01.038Z,5.93
2022-10-12T22:16:30.149Z,7.60
2022-10-12T22:18:58.966Z,10.67
2022-10-12T22:21:27.434Z,10.33
2022-10-12T22:23:56.017Z,11.37
2022-10-12T22:26:25.003Z,8.13
2022-10-12T22:28:54.320Z,7.33
2022-10-12T22:31:23.553Z,7.60
2022-10-12T22:33:52.214Z,8.50
2022-10-12T22:36:20.615Z,7.80
2022-10-12T22:38:48.522Z,8.00
2022-10-12T22:41:18.125Z,7.77
2022-10-12T22:43:46.053Z,7.47
2022-10-12T22:46:15.335Z,7.97
2022-10-12T22:48:43.268Z,7.73
2022-10-12T22:51:12.954Z,6.37
2022-10-12T22:53:40.846Z,6.70
2022-10-12T22:56:14.384Z,7.20
2022-10-12T22:58:42.439Z,6.73
2022-10-12T23:01:12.698Z,7.00
2022-10-12T23:03:42.503Z,5.80
2022-10-12T23:06:12.297Z,6.67
2022-10-12T23:08:40.725Z,5.70
2022-10-12T23:11:11.141Z,5.70
2022-10-12T23:13:39.654Z,7.17
2022-10-12T23:16:10.669Z,5.43
2022-10-12T23:18:39.087Z,6.27
2022-10-12T23:21:10.091Z,4.80
2022-10-12T23:23:39.635Z,6.57
2022-10-12T23:26:09.338Z,5.87
2022-10-12T23:28:37.875Z,6.43
2022-10-12T23:31:07.020Z,7.60
2022-10-12T23:33:35.199Z,7.17
2022-10-12T23:36:05.326Z,7.63
2022-10-12T23:38:36.118Z,8.27
2022-10-12T23:41:04.740Z,6.10
2022-10-12T23:43:33.197Z,7.47
2022-10-12T23:46:01.238Z,7.30
2022-10-12T23:48:29.471Z,7.00
2022-10-12T23:50:57.469Z,7.13
2022-10-12T23:53:26.323Z,7.30
2022-10-12T23:55:55.623Z,6.73
2022-10-12T23:58:23.551Z,9.10
